createdAt,value
2022-10-22T00:01:13.245Z,87.70
2022-10-22T00:03:39.923Z,87.70
2022-10-22T00:06:06.979Z,87.70
2022-10-22T00:08:33.740Z,87.70
2022-10-22T00:11:07.462Z,87.80
2022-10-22T00:13:34.152Z,87.90
2022-10-22T00:16:00.854Z,87.90
2022-10-22T00:18:27.588Z,87.90
2022-10-22T00:20:54.329Z,87.90
2022-10-22T00:23:21.377Z,88.00
2022-10-22T00:25:48.162Z,88.10
2022-10-22T00:28:14.819Z,88.10
2022-10-22T00:30:41.554Z,88.00
2022-10-22T00:33:08.261Z,88.00
2022-10-22T00:35:35.120Z,88.00
2022-10-22T00:38:01.917Z,88.00
2022-10-22T00:40:28.721Z,88.10
2022-10-22T00:42:55.542Z,88.10
2022-10-22T00:45:24.329Z,88.20
2022-10-22T00:48:05.259Z,88.30
2022-10-22T00:50:39.295Z,88.40
2022-10-22T00:53:10.904Z,88.50
2022-10-22T00:55:37.645Z,88.40
2022-10-22T00:58:04.355Z,88.40
2022-10-22T01:00:31.258Z,88.30
2022-10-22T01:02:58.014Z,88.30
2022-10-22T01:05:29.927Z,88.20
2022-10-22T01:07:56.710Z,88.20
2022-10-22T01:10:33.992Z,88.00
2022-10-22T01:13:03.339Z,88.20
2022-10-22T01:15:32.801Z,88.20
2022-10-22T01:18:20.431Z,88.20
2022-10-22T01:21:02.826Z,88.40
2022-10-22T01:23:51.664Z,88.30
2022-10-22T01:29:02.816Z,88.40
2022-10-22T01:31:31.982Z,88.40
2022-10-22T01:33:59.318Z,88.40
2022-10-22T01:36:26.023Z,88.40
2022-10-22T01:38:53.021Z,88.50
2022-10-22T01:41:19.699Z,88.40
2022-10-22T01:43:46.406Z,88.50
2022-10-22T01:46:13.177Z,88.50
2022-10-22T01:48:55.526Z,88.40
2022-10-22T01:51:52.130Z,88.50
2022-10-22T01:54:40.102Z,89.40
2022-10-22T01:57:29.747Z,88.70
2022-10-22T02:00:09.851Z,88.70
2022-10-22T02:02:42.353Z,88.80
2022-10-22T02:05:16.530Z,88.70
2022-10-22T02:07:52.948Z,88.70
2022-10-22T02:10:19.775Z,88.60
2022-10-22T02:12:48.430Z,88.50
2022-10-22T02:15:15.325Z,88.50
2022-10-22T02:17:42.170Z,88.50
2022-10-22T02:20:16.526Z,88.50
2022-10-22T02:22:43.569Z,88.60
2022-10-22T02:25:10.392Z,88.50
2022-10-22T02:27:42.748Z,88.60
2022-10-22T02:30:17.910Z,88.60
2022-10-22T02:33:11.152Z,88.70
2022-10-22T02:35:37.873Z,88.60
2022-10-22T02:38:04.769Z,88.50
2022-10-22T02:40:31.510Z,88.70
2022-10-22T02:42:58.268Z,88.70
2022-10-22T02:45:25.109Z,88.70
2022-10-22T02:47:52.141Z,88.70
2022-10-22T02:50:18.816Z,88.70
2022-10-22T02:52:45.579Z,88.70
2022-10-22T02:55:12.248Z,88.90
2022-10-22T02:57:39.160Z,88.90
2022-10-22T03:00:07.264Z,89.00
2022-10-22T03:02:34.026Z,89.10
2022-10-22T03:05:00.683Z,89.10
2022-10-22T03:07:27.353Z,89.00
2022-10-22T03:09:54.008Z,89.10
2022-10-22T03:12:20.680Z,89.00
2022-10-22T03:14:47.414Z,89.00
2022-10-22T03:17:14.084Z,88.90
2022-10-22T03:19:40.769Z,89.00
2022-10-22T03:22:12.246Z,89.00
2022-10-22T03:24:42.664Z,89.00
2022-10-22T03:27:09.757Z,89.00
2022-10-22T03:29:37.522Z,89.00
2022-10-22T03:32:04.272Z,88.90
2022-10-22T03:34:30.929Z,88.90
2022-10-22T03:36:58.325Z,89.00
2022-10-22T03:39:24.981Z,88.90
2022-10-22T03:41:51.708Z,88.90
2022-10-22T03:44:18.463Z,88.90
2022-10-22T03:46:45.137Z,89.00
2022-10-22T03:49:11.813Z,89.00
2022-10-22T03:51:38.564Z,89.00
2022-10-22T03:54:05.494Z,88.90
2022-10-22T03:56:32.197Z,88.90
2022-10-22T03:58:59.423Z,88.80
2022-10-22T04:01:26.567Z,88.80
2022-10-22T04:03:53.747Z,88.90
2022-10-22T04:06:20.434Z,88.90
2022-10-22T04:08:47.185Z,88.90
2022-10-22T04:11:14.965Z,88.90
2022-10-22T04:13:41.834Z,89.00
2022-10-22T04:16:30.006Z,89.00
2022-10-22T04:18:57.476Z,89.00
2022-10-22T04:21:24.240Z,89.00
2022-10-22T04:23:51.877Z,89.10
2022-10-22T04:26:18.856Z,89.10
2022-10-22T04:28:48.968Z,89.20
2022-10-22T04:31:18.215Z,89.30
2022-10-22T04:33:45.158Z,89.30
2022-10-22T04:36:14.496Z,89.20
2022-10-22T04:38:41.427Z,89.30
2022-10-22T04:41:09.822Z,89.30
2022-10-22T04:43:36.505Z,89.20
2022-10-22T04:46:03.225Z,89.20
2022-10-22T04:48:29.951Z,89.30
2022-10-22T04:50:59.677Z,89.30
2022-10-22T04:53:26.685Z,89.30
2022-10-22T04:55:53.791Z,89.30
2022-10-22T04:58:20.593Z,89.30
2022-10-22T05:00:47.354Z,89.20
2022-10-22T05:03:14.202Z,89.20
2022-10-22T05:05:40.880Z,89.30
2022-10-22T05:08:07.524Z,89.30
2022-10-22T05:10:34.404Z,89.30
2022-10-22T05:13:01.055Z,89.30
2022-10-22T05:15:27.781Z,89.30
2022-10-22T05:17:54.493Z,89.30
2022-10-22T05:20:21.170Z,89.30
2022-10-22T05:22:47.849Z,89.30
2022-10-22T05:25:14.574Z,89.20
2022-10-22T05:27:41.465Z,89.30
2022-10-22T05:30:08.592Z,89.20
2022-10-22T05:32:35.569Z,89.30
2022-10-22T05:35:02.225Z,89.30
2022-10-22T05:37:28.938Z,89.30
2022-10-22T05:40:06.509Z,89.30
2022-10-22T05:42:42.588Z,89.30
2022-10-22T05:45:09.726Z,89.30
2022-10-22T05:47:36.365Z,89.10
2022-10-22T05:50:03.198Z,89.30
2022-10-22T05:52:29.907Z,89.30
2022-10-22T05:54:56.560Z,89.30
2022-10-22T05:57:23.240Z,89.40
2022-10-22T05:59:49.922Z,89.40
2022-10-22T06:02:16.653Z,89.50
2022-10-22T06:04:43.495Z,89.40
2022-10-22T06:07:10.590Z,89.40
2022-10-22T06:12:08.873Z,89.40
2022-10-22T06:14:35.587Z,89.40
2022-10-22T06:17:02.241Z,89.40
2022-10-22T06:19:29.050Z,89.40
2022-10-22T06:21:55.700Z,89.50
2022-10-22T06:24:22.373Z,89.50
2022-10-22T06:26:52.212Z,89.40
2022-10-22T06:29:18.923Z,89.40
2022-10-22T06:31:45.637Z,89.40
2022-10-22T06:34:12.808Z,89.50
2022-10-22T06:39:12.415Z,89.50
2022-10-22T06:41:39.074Z,89.50
2022-10-22T06:44:05.769Z,89.50
2022-10-22T06:46:32.421Z,89.50
2022-10-22T06:49:01.118Z,89.50
2022-10-22T06:51:27.876Z,89.60
2022-10-22T06:53:55.480Z,89.70
2022-10-22T06:56:23.376Z,89.70
2022-10-22T06:58:50.704Z,89.70
2022-10-22T07:01:19.062Z,89.60
2022-10-22T07:03:45.792Z,89.60
2022-10-22T07:06:14.084Z,89.60
2022-10-22T07:08:41.167Z,89.50
2022-10-22T07:11:11.922Z,89.50
2022-10-22T07:13:38.590Z,89.50
2022-10-22T07:16:05.969Z,89.50
2022-10-22T07:18:32.813Z,89.50
2022-10-22T07:20:59.701Z,89.40
2022-10-22T07:23:27.011Z,89.40
2022-10-22T07:25:54.077Z,89.40
2022-10-22T07:28:20.760Z,89.30
2022-10-22T07:30:47.645Z,89.30
2022-10-22T07:33:14.648Z,89.10
2022-10-22T07:35:41.494Z,89.00
2022-10-22T07:38:08.445Z,88.80
2022-10-22T07:40:35.375Z,88.70
2022-10-22T07:43:02.327Z,88.60
2022-10-22T07:45:29.085Z,88.60
2022-10-22T07:47:55.748Z,88.50
2022-10-22T07:50:22.495Z,88.50
2022-10-22T07:52:49.252Z,88.50
2022-10-22T07:55:16.035Z,88.30
2022-10-22T07:57:42.791Z,88.30
2022-10-22T08:00:10.033Z,88.30
2022-10-22T08:02:36.752Z,88.20
2022-10-22T08:05:03.542Z,88.10
2022-10-22T08:07:30.284Z,88.10
2022-10-22T08:09:56.946Z,88.10
2022-10-22T08:12:23.676Z,88.00
2022-10-22T08:14:50.348Z,88.00
2022-10-22T08:17:17.017Z,88.00
2022-10-22T08:19:43.671Z,87.90
2022-10-22T08:22:10.343Z,87.90
2022-10-22T08:24:37.091Z,87.90
2022-10-22T08:27:03.856Z,87.80
2022-10-22T08:29:30.521Z,87.70
2022-10-22T08:31:57.184Z,87.60
2022-10-22T08:34:23.921Z,87.40
2022-10-22T08:36:50.613Z,87.30
2022-10-22T08:39:17.283Z,87.20
2022-10-22T08:42:05.222Z,87.00
2022-10-22T08:44:47.052Z,87.10
2022-10-22T08:47:31.965Z,86.90
2022-10-22T08:49:58.855Z,86.80
2022-10-22T08:52:25.515Z,86.80
2022-10-22T08:54:53.288Z,86.70
2022-10-22T08:57:35.027Z,86.50
2022-10-22T09:00:04.526Z,86.40
2022-10-22T09:02:39.859Z,86.30
2022-10-22T09:05:20.806Z,86.10
2022-10-22T09:07:47.523Z,86.00
2022-10-22T09:10:14.232Z,85.90
2022-10-22T09:12:40.983Z,85.70
2022-10-22T09:15:15.315Z,85.40
2022-10-22T09:18:00.489Z,85.20
2022-10-22T09:20:48.445Z,85.00
2022-10-22T09:23:17.918Z,84.60
2022-10-22T09:25:44.765Z,84.50
2022-10-22T09:28:11.503Z,84.40
2022-10-22T09:30:38.328Z,84.00
2022-10-22T09:33:07.912Z,83.90
2022-10-22T09:35:35.943Z,83.70
2022-10-22T09:38:07.406Z,82.60
2022-10-22T09:40:52.427Z,81.10
2022-10-22T09:43:19.483Z,79.60
2022-10-22T09:45:46.441Z,78.50
2022-10-22T09:48:23.164Z,77.60
2022-10-22T09:50:55.069Z,77.20
2022-10-22T09:53:31.936Z,75.90
2022-10-22T09:55:59.874Z,73.00
2022-10-22T09:58:26.766Z,71.10
2022-10-22T10:00:58.068Z,69.10
2022-10-22T10:03:27.352Z,67.40
2022-10-22T10:06:06.041Z,66.60
2022-10-22T10:08:33.231Z,66.40
2022-10-22T10:11:06.138Z,66.10
2022-10-22T10:14:01.472Z,65.30
2022-10-22T10:17:03.693Z,63.80
2022-10-22T10:19:48.268Z,62.60
2022-10-22T10:22:26.312Z,61.40
2022-10-22T10:25:34.338Z,60.50
2022-10-22T10:28:18.268Z,59.50
2022-10-22T10:31:08.122Z,58.50
2022-10-22T10:33:52.751Z,58.90
2022-10-22T10:37:20.885Z,58.20
2022-10-22T10:40:19.230Z,57.20
2022-10-22T10:42:58.655Z,57.30
2022-10-22T10:45:47.245Z,57.70
2022-10-22T10:48:35.204Z,57.90
2022-10-22T10:51:14.228Z,57.60
2022-10-22T10:54:09.436Z,58.00
2022-10-22T10:56:47.347Z,58.90
2022-10-22T10:59:16.613Z,59.80
2022-10-22T11:01:58.451Z,61.30
2022-10-22T11:04:46.723Z,61.40
2022-10-22T11:07:33.461Z,60.70
2022-10-22T11:10:04.942Z,61.20
2022-10-22T11:12:36.559Z,62.60
2022-10-22T11:15:19.179Z,63.40
2022-10-22T11:17:46.164Z,64.00
2022-10-22T11:20:53.418Z,64.20
2022-10-22T11:23:54.723Z,64.10
2022-10-22T11:26:31.010Z,64.20
2022-10-22T11:28:57.685Z,64.10
2022-10-22T11:31:24.368Z,63.60
2022-10-22T11:34:04.769Z,63.20
2022-10-22T11:36:42.276Z,61.50
2022-10-22T11:39:34.105Z,60.00
2022-10-22T11:42:03.864Z,59.00
2022-10-22T11:44:30.744Z,58.30
2022-10-22T11:47:09.394Z,57.20
2022-10-22T11:49:55.960Z,56.60
2022-10-22T11:52:23.601Z,56.70
2022-10-22T11:54:54.111Z,56.70
2022-10-22T11:57:22.860Z,56.00
2022-10-22T11:59:52.833Z,55.40
2022-10-22T12:02:28.613Z,55.90
2022-10-22T12:04:56.125Z,56.80
2022-10-22T12:07:32.315Z,58.00
2022-10-22T12:09:59.169Z,58.80
2022-10-22T12:12:26.205Z,59.20
2022-10-22T12:14:58.904Z,58.30
2022-10-22T12:17:25.807Z,57.10
2022-10-22T12:20:02.095Z,56.30
2022-10-22T12:22:33.651Z,56.30
2022-10-22T12:25:01.241Z,55.40
2022-10-22T12:27:36.123Z,55.50
2022-10-22T12:30:03.854Z,56.10
2022-10-22T12:32:35.478Z,57.50
2022-10-22T12:35:07.747Z,58.70
2022-10-22T12:37:37.650Z,59.90
2022-10-22T12:40:32.858Z,60.50
2022-10-22T12:43:20.698Z,61.20
2022-10-22T12:45:48.545Z,62.00
2022-10-22T12:48:25.623Z,62.50
2022-10-22T12:50:54.511Z,63.10
2022-10-22T12:53:34.941Z,63.50
2022-10-22T12:56:03.891Z,63.80
2022-10-22T12:58:38.213Z,63.90
2022-10-22T13:01:05.044Z,64.10
2022-10-22T13:03:36.537Z,63.70
2022-10-22T13:06:33.769Z,63.30
2022-10-22T13:09:00.754Z,62.90
2022-10-22T13:11:34.789Z,63.20
2022-10-22T13:14:05.810Z,63.60
2022-10-22T13:16:32.677Z,63.90
2022-10-22T13:18:59.364Z,64.50
2022-10-22T13:21:27.291Z,64.80
2022-10-22T13:24:04.683Z,65.00
2022-10-22T13:26:35.730Z,65.30
2022-10-22T13:29:03.012Z,65.50
2022-10-22T13:31:32.410Z,65.80
2022-10-22T13:34:09.791Z,65.90
2022-10-22T13:36:38.773Z,66.00
2022-10-22T13:39:06.671Z,65.70
2022-10-22T13:41:41.370Z,65.50
2022-10-22T13:44:08.135Z,65.40
2022-10-22T13:46:34.829Z,65.50
2022-10-22T13:49:01.540Z,65.50
2022-10-22T13:51:31.968Z,65.30
2022-10-22T13:53:58.641Z,65.50
2022-10-22T13:56:25.300Z,65.70
2022-10-22T13:58:52.058Z,65.10
2022-10-22T14:01:26.190Z,65.00
2022-10-22T14:03:56.709Z,65.00
2022-10-22T14:06:23.616Z,64.90
2022-10-22T14:08:54.375Z,64.80
2022-10-22T14:11:21.084Z,64.90
2022-10-22T14:13:47.787Z,64.90
2022-10-22T14:16:25.824Z,65.00
2022-10-22T14:18:52.549Z,65.00
2022-10-22T14:21:19.360Z,65.00
2022-10-22T14:23:46.921Z,65.00
2022-10-22T14:26:28.169Z,65.20
2022-10-22T14:29:11.331Z,65.30
2022-10-22T14:34:07.137Z,65.50
2022-10-22T14:36:33.874Z,65.70
2022-10-22T14:39:00.525Z,65.90
2022-10-22T14:41:27.517Z,66.30
2022-10-22T14:43:54.177Z,66.50
2022-10-22T14:46:20.965Z,66.70
2022-10-22T14:48:47.755Z,66.90
2022-10-22T14:51:15.970Z,67.00
2022-10-22T14:53:42.748Z,67.20
2022-10-22T14:56:13.321Z,67.20
2022-10-22T14:58:40.216Z,67.40
2022-10-22T15:01:07.387Z,67.50
2022-10-22T15:03:34.170Z,67.50
2022-10-22T15:06:01.282Z,67.60
2022-10-22T15:08:27.999Z,67.70
2022-10-22T15:11:02.601Z,67.70
2022-10-22T15:13:29.469Z,67.80
2022-10-22T15:15:56.998Z,67.70
2022-10-22T15:18:24.001Z,67.90
2022-10-22T15:20:58.124Z,67.90
2022-10-22T15:23:24.818Z,68.00
2022-10-22T15:25:51.533Z,68.00
2022-10-22T15:28:18.448Z,68.30
2022-10-22T15:30:45.135Z,68.40
2022-10-22T15:33:11.799Z,68.60
2022-10-22T15:35:38.467Z,68.70
2022-10-22T15:38:05.155Z,68.90
2022-10-22T15:40:31.872Z,69.10
2022-10-22T15:42:58.530Z,69.20
2022-10-22T15:45:25.233Z,69.30
2022-10-22T15:47:51.974Z,69.40
2022-10-22T15:50:18.682Z,69.70
2022-10-22T15:52:45.463Z,70.00
2022-10-22T15:57:40.029Z,70.30
2022-10-22T16:00:07.504Z,70.40
2022-10-22T16:02:34.272Z,70.60
2022-10-22T16:05:00.998Z,70.80
2022-10-22T16:07:27.678Z,70.90
2022-10-22T16:09:58.111Z,71.00
2022-10-22T16:12:24.853Z,71.10
2022-10-22T16:14:51.545Z,71.30
2022-10-22T16:17:18.383Z,71.30
2022-10-22T16:19:45.126Z,71.60
2022-10-22T16:22:11.821Z,71.70
2022-10-22T16:24:38.599Z,71.80
2022-10-22T16:27:05.290Z,71.90
2022-10-22T16:29:31.976Z,72.10
2022-10-22T16:31:58.651Z,72.30
2022-10-22T16:34:28.157Z,72.50
2022-10-22T16:36:54.853Z,72.60
2022-10-22T16:39:21.586Z,72.80
2022-10-22T16:41:48.309Z,72.90
2022-10-22T16:44:14.968Z,73.10
2022-10-22T16:46:41.773Z,73.30
2022-10-22T16:49:08.515Z,73.50
2022-10-22T16:51:35.343Z,73.60
2022-10-22T16:54:03.615Z,73.70
2022-10-22T16:56:32.287Z,73.90
2022-10-22T16:58:59.031Z,74.00
2022-10-22T17:01:26.903Z,74.20
2022-10-22T17:03:53.768Z,74.20
2022-10-22T17:06:20.965Z,74.40
2022-10-22T17:08:47.711Z,74.60
2022-10-22T17:11:16.477Z,74.70
2022-10-22T17:13:46.999Z,74.80
2022-10-22T17:16:14.423Z,75.00
2022-10-22T17:18:41.498Z,75.00
2022-10-22T17:21:08.979Z,75.00
2022-10-22T17:23:35.724Z,75.30
2022-10-22T17:26:03.792Z,75.30
2022-10-22T17:28:30.475Z,75.50
2022-10-22T17:31:23.419Z,75.50
2022-10-22T17:33:51.038Z,75.70
2022-10-22T17:36:18.442Z,75.70
2022-10-22T17:38:47.853Z,75.80
2022-10-22T17:41:16.804Z,75.90
2022-10-22T17:43:43.616Z,76.00
2022-10-22T17:46:11.301Z,76.10
2022-10-22T17:48:38.004Z,76.20
2022-10-22T17:51:11.923Z,76.40
2022-10-22T17:53:41.738Z,76.70
2022-10-22T17:56:09.603Z,76.60
2022-10-22T17:58:36.726Z,76.70
2022-10-22T18:01:03.591Z,76.90
2022-10-22T18:03:30.301Z,77.10
2022-10-22T18:05:57.047Z,77.20
2022-10-22T18:08:23.742Z,77.40
2022-10-22T18:10:50.575Z,77.40
2022-10-22T18:13:17.233Z,77.60
2022-10-22T18:15:43.937Z,77.60
2022-10-22T18:18:10.630Z,77.70
2022-10-22T18:20:37.337Z,77.80
2022-10-22T18:23:04.068Z,77.90
2022-10-22T18:25:30.771Z,78.00
2022-10-22T18:27:57.469Z,78.10
2022-10-22T18:30:24.139Z,78.10
2022-10-22T18:32:50.883Z,78.20
2022-10-22T18:35:17.580Z,78.30
2022-10-22T18:37:44.521Z,78.40
2022-10-22T18:40:14.593Z,78.50
2022-10-22T18:42:41.906Z,78.60
2022-10-22T18:45:09.146Z,79.50
2022-10-22T18:47:42.110Z,78.70
2022-10-22T18:50:09.414Z,79.10
2022-10-22T18:52:36.496Z,78.90
2022-10-22T18:55:03.339Z,79.00
2022-10-22T18:57:30.085Z,79.00
2022-10-22T18:59:59.404Z,79.20
2022-10-22T19:02:26.448Z,79.20
2022-10-22T19:04:53.182Z,79.40
2022-10-22T19:07:19.898Z,79.40
2022-10-22T19:09:46.661Z,79.50
2022-10-22T19:12:13.425Z,79.50
2022-10-22T19:14:40.265Z,79.60
2022-10-22T19:17:06.946Z,79.70
2022-10-22T19:19:33.617Z,79.70
2022-10-22T19:22:00.333Z,79.80
2022-10-22T19:24:27.045Z,79.90
2022-10-22T19:26:53.721Z,79.90
2022-10-22T19:29:20.510Z,79.90
2022-10-22T19:31:47.445Z,80.00
2022-10-22T19:34:14.409Z,80.10
2022-10-22T19:36:41.100Z,80.30
2022-10-22T19:39:07.776Z,80.30
2022-10-22T19:41:34.821Z,80.40
2022-10-22T19:44:01.771Z,80.50
2022-10-22T19:46:29.080Z,80.50
2022-10-22T19:48:55.854Z,80.60
2022-10-22T19:51:24.097Z,80.70
2022-10-22T19:53:50.989Z,80.80
2022-10-22T19:56:19.811Z,80.90
2022-10-22T19:58:46.765Z,81.00
2022-10-22T20:01:14.815Z,81.00
2022-10-22T20:03:41.642Z,81.00
2022-10-22T20:06:09.174Z,81.00
2022-10-22T20:08:36.288Z,81.10
2022-10-22T20:11:03.325Z,81.20
2022-10-22T20:13:30.077Z,81.20
2022-10-22T20:15:56.894Z,81.30
2022-10-22T20:18:23.574Z,81.40
2022-10-22T20:20:50.350Z,81.40
2022-10-22T20:23:17.046Z,81.40
2022-10-22T20:25:44.926Z,81.40
2022-10-22T20:28:11.898Z,81.50
2022-10-22T20:30:42.521Z,81.50
2022-10-22T20:33:09.200Z,81.40
2022-10-22T20:35:36.453Z,81.40
2022-10-22T20:38:04.115Z,81.40
2022-10-22T20:40:30.902Z,81.50
2022-10-22T20:43:00.702Z,81.40
2022-10-22T20:45:27.667Z,81.50
2022-10-22T20:48:01.912Z,81.50
2022-10-22T20:50:29.527Z,81.60
2022-10-22T20:52:56.177Z,81.50
2022-10-22T20:55:22.875Z,81.60
2022-10-22T20:57:49.629Z,81.70
2022-10-22T21:00:16.444Z,81.70
2022-10-22T21:02:43.146Z,81.70
2022-10-22T21:05:09.818Z,81.90
2022-10-22T21:07:36.496Z,81.90
2022-10-22T21:10:03.870Z,82.00
2022-10-22T21:12:30.563Z,82.00
2022-10-22T21:14:57.280Z,82.00
2022-10-22T21:17:23.973Z,82.00
2022-10-22T21:19:50.750Z,82.10
2022-10-22T21:22:17.520Z,82.00
2022-10-22T21:24:44.298Z,82.10
2022-10-22T21:27:10.983Z,82.10
2022-10-22T21:29:37.745Z,82.10
2022-10-22T21:32:04.604Z,82.20
2022-10-22T21:34:33.293Z,82.20
2022-10-22T21:37:03.317Z,82.20
2022-10-22T21:39:30.310Z,82.30
2022-10-22T21:41:57.021Z,82.30
2022-10-22T21:44:23.682Z,82.30
2022-10-22T21:46:50.417Z,82.40
2022-10-22T21:49:17.088Z,82.50
2022-10-22T21:51:43.795Z,82.50
2022-10-22T21:54:10.475Z,82.60
2022-10-22T21:56:37.256Z,82.70
2022-10-22T21:59:04.759Z,82.70
2022-10-22T22:01:31.676Z,82.70
2022-10-22T22:03:58.609Z,82.70
2022-10-22T22:06:28.349Z,82.70
2022-10-22T22:08:57.555Z,82.80
2022-10-22T22:11:25.521Z,82.80
2022-10-22T22:13:52.784Z,82.90
2022-10-22T22:16:25.416Z,82.90
2022-10-22T22:18:54.972Z,83.00
2022-10-22T22:21:21.865Z,83.00
2022-10-22T22:23:49.083Z,83.00
2022-10-22T22:26:16.870Z,83.10
2022-10-22T22:28:43.603Z,83.10
2022-10-22T22:31:17.985Z,83.20
2022-10-22T22:33:44.991Z,83.30
2022-10-22T22:36:11.842Z,83.20
2022-10-22T22:38:38.569Z,83.20
2022-10-22T22:41:05.720Z,83.30
2022-10-22T22:43:32.644Z,83.30
2022-10-22T22:46:00.236Z,83.30
2022-10-22T22:48:27.453Z,83.40
2022-10-22T22:50:54.208Z,83.50
2022-10-22T22:53:21.097Z,83.50
2022-10-22T22:55:47.853Z,83.50
2022-10-22T22:58:14.725Z,83.70
2022-10-22T23:03:12.994Z,83.70
2022-10-22T23:05:39.658Z,83.70
2022-10-22T23:08:06.436Z,83.70
2022-10-22T23:10:33.074Z,83.70
2022-10-22T23:12:59.796Z,83.80
2022-10-22T23:15:26.496Z,83.80
2022-10-22T23:17:53.198Z,83.90
2022-10-22T23:20:19.872Z,84.00
2022-10-22T23:22:47.927Z,84.00
2022-10-22T23:25:14.727Z,84.10
2022-10-22T23:27:41.653Z,84.10
2022-10-22T23:30:09.213Z,84.00
2022-10-22T23:32:35.950Z,84.20
2022-10-22T23:35:02.624Z,84.20
2022-10-22T23:37:29.366Z,84.20
2022-10-22T23:39:56.078Z,84.30
2022-10-22T23:42:22.838Z,84.30
2022-10-22T23:44:49.499Z,84.40
2022-10-22T23:47:16.595Z,84.40
2022-10-22T23:49:43.312Z,84.40
2022-10-22T23:52:09.994Z,84.40
2022-10-22T23:54:36.658Z,84.50
2022-10-22T23:57:03.379Z,84.60
2022-10-22T23:59:30.062Z,84.50
